createdAt,value
2016-10-12T00:00:02.207Z,0
2016-10-12T00:01:02.631Z,0
2016-10-12T00:02:01.897Z,0
2016-10-12T00:03:02.573Z,0
2016-10-12T00:04:02.281Z,0
2016-10-12T00:05:02.003Z,0
2016-10-12T00:06:02.890Z,0
2016-10-12T00:07:02.136Z,0
2016-10-12T00:08:02.751Z,0
2016-10-12T00:09:02.129Z,0
2016-10-12T00:10:02.697Z,0
2016-10-12T00:11:03.247Z,0
2016-10-12T00:12:02.900Z,0
2016-10-12T00:13:02.290Z,0
2016-10-12T00:14:02.226Z,0
2016-10-12T00:15:02.104Z,0
2016-10-12T00:16:02.515Z,0
2016-10-12T00:17:03.269Z,0
2016-10-12T00:18:02.433Z,0
2016-10-12T00:19:02.850Z,0
2016-10-12T00:20:03.033Z,0
2016-10-12T00:21:02.779Z,0
2016-10-12T00:22:02.913Z,0
2016-10-12T00:23:03.370Z,0
2016-10-12T00:24:03.173Z,0
2016-10-12T00:25:02.979Z,0
2016-10-12T00:26:02.523Z,0
2016-10-12T00:27:02.340Z,0
2016-10-12T00:28:02.670Z,0
2016-10-12T00:29:02.702Z,0
2016-10-12T00:30:02.950Z,0
2016-10-12T00:31:02.094Z,0
2016-10-12T00:32:03.550Z,0
2016-10-12T00:33:02.887Z,0
2016-10-12T00:34:03.205Z,0
2016-10-12T00:35:03.372Z,0
2016-10-12T00:36:02.239Z,0
2016-10-12T00:37:03.053Z,0
2016-10-12T00:38:02.807Z,0
2016-10-12T00:39:02.353Z,0
2016-10-12T00:40:03.616Z,0
2016-10-12T00:41:02.610Z,0
2016-10-12T00:42:03.073Z,0
2016-10-12T00:43:02.705Z,0
2016-10-12T00:44:03.293Z,0
2016-10-12T00:45:03.481Z,0
2016-10-12T00:46:02.363Z,0
2016-10-12T00:47:03.098Z,0
2016-10-12T00:48:02.933Z,0
2016-10-12T00:49:02.907Z,0
2016-10-12T00:50:02.918Z,0
2016-10-12T00:51:02.573Z,0
2016-10-12T00:52:03.443Z,0
2016-10-12T00:53:03.247Z,0
2016-10-12T00:54:03.547Z,0
2016-10-12T00:55:03.081Z,0
2016-10-12T00:56:03.250Z,0
2016-10-12T00:57:03.833Z,0
2016-10-12T00:58:03.625Z,0
2016-10-12T00:59:03.414Z,0
2016-10-12T01:00:03.607Z,0
2016-10-12T01:01:02.869Z,0
2016-10-12T01:02:03.750Z,0
2016-10-12T01:03:03.697Z,0
2016-10-12T01:04:04.121Z,0
2016-10-12T01:05:03.283Z,0
2016-10-12T01:06:02.617Z,0
2016-10-12T01:07:03.728Z,0
2016-10-12T01:08:03.093Z,0
2016-10-12T01:09:03.258Z,0
2016-10-12T01:10:04.960Z,0
2016-10-12T01:11:03.289Z,0
2016-10-12T01:12:03.302Z,0
2016-10-12T01:13:04.014Z,0
2016-10-12T01:14:03.466Z,0
2016-10-12T01:15:03.327Z,0
2016-10-12T01:16:03.456Z,0
2016-10-12T01:17:04.102Z,0
2016-10-12T01:18:03.638Z,0
2016-10-12T01:19:03.408Z,0
2016-10-12T01:20:04.008Z,0
2016-10-12T01:21:04.341Z,0
2016-10-12T01:22:04.809Z,0
2016-10-12T01:23:03.754Z,0
2016-10-12T01:24:03.711Z,0
2016-10-12T01:25:04.114Z,0
2016-10-12T01:26:03.880Z,0
2016-10-12T01:27:03.996Z,0
2016-10-12T01:28:03.681Z,0
2016-10-12T01:29:04.302Z,0
2016-10-12T01:30:03.209Z,0
2016-10-12T01:31:04.073Z,0
2016-10-12T01:32:03.953Z,0
2016-10-12T01:33:04.084Z,0
2016-10-12T01:34:03.966Z,0
2016-10-12T01:35:03.962Z,0
2016-10-12T01:36:03.596Z,0
2016-10-12T01:37:03.617Z,0
2016-10-12T01:38:03.624Z,0
2016-10-12T01:39:04.307Z,0
2016-10-12T01:40:04.097Z,0
2016-10-12T01:41:04.348Z,0
2016-10-12T01:42:04.607Z,0
2016-10-12T01:43:03.830Z,0
2016-10-12T01:44:04.547Z,0
2016-10-12T01:45:04.328Z,0
2016-10-12T01:46:04.414Z,0
2016-10-12T01:47:05.131Z,0
2016-10-12T01:48:04.662Z,0
2016-10-12T01:49:04.503Z,0
2016-10-12T01:50:04.241Z,0
2016-10-12T01:51:04.652Z,0
2016-10-12T01:52:04.041Z,0
2016-10-12T01:53:04.437Z,0
2016-10-12T01:54:03.986Z,0
2016-10-12T01:55:04.301Z,0
2016-10-12T01:56:03.990Z,0
2016-10-12T01:57:04.179Z,0
2016-10-12T01:58:03.974Z,0
2016-10-12T01:59:04.185Z,0
2016-10-12T02:00:04.468Z,0
2016-10-12T02:01:04.868Z,0
2016-10-12T02:02:05.176Z,0
2016-10-12T02:03:05.102Z,0
2016-10-12T02:04:04.417Z,0
2016-10-12T02:05:04.146Z,0
2016-10-12T02:06:04.658Z,0
2016-10-12T02:07:03.699Z,0
2016-10-12T02:08:04.374Z,0
2016-10-12T02:09:04.864Z,0
2016-10-12T02:10:04.685Z,0
2016-10-12T02:11:04.661Z,0
2016-10-12T02:12:05.221Z,0
2016-10-12T02:13:04.614Z,0
2016-10-12T02:14:05.196Z,0
2016-10-12T02:15:04.603Z,0
2016-10-12T02:16:04.594Z,0
2016-10-12T02:17:05.202Z,0
2016-10-12T02:18:04.924Z,0
2016-10-12T02:19:04.524Z,0
2016-10-12T02:20:04.815Z,0
2016-10-12T02:21:04.180Z,0
2016-10-12T02:22:05.488Z,0
2016-10-12T02:23:04.386Z,0
2016-10-12T02:24:04.499Z,0
2016-10-12T02:25:04.594Z,0
2016-10-12T02:26:04.990Z,0
2016-10-12T02:27:05.445Z,0
2016-10-12T02:28:05.436Z,0
2016-10-12T02:29:04.826Z,0
2016-10-12T02:30:04.857Z,0
2016-10-12T02:31:04.797Z,0
2016-10-12T02:32:05.637Z,0
2016-10-12T02:33:04.881Z,0
2016-10-12T02:34:05.340Z,0
2016-10-12T02:35:04.386Z,0
2016-10-12T02:36:05.990Z,0
2016-10-12T02:37:05.190Z,0
2016-10-12T02:38:06.150Z,0
2016-10-12T02:39:05.149Z,0
2016-10-12T02:40:04.827Z,0
2016-10-12T02:41:05.354Z,0
2016-10-12T02:42:05.345Z,0
2016-10-12T02:43:05.805Z,0
2016-10-12T02:44:04.857Z,0
2016-10-12T02:45:04.877Z,0
2016-10-12T02:46:05.254Z,0
2016-10-12T02:47:04.861Z,0
2016-10-12T02:48:05.691Z,0
2016-10-12T02:49:06.659Z,0
2016-10-12T02:50:05.865Z,0
2016-10-12T02:51:05.653Z,0
2016-10-12T02:52:05.463Z,0
2016-10-12T02:53:05.435Z,0
2016-10-12T02:54:05.492Z,0
2016-10-12T02:55:04.772Z,0
2016-10-12T02:56:04.959Z,0
2016-10-12T02:57:05.874Z,0
2016-10-12T02:58:04.779Z,0
2016-10-12T02:59:05.430Z,0
2016-10-12T03:00:05.479Z,0
2016-10-12T03:01:05.171Z,0
2016-10-12T03:02:05.241Z,0
2016-10-12T03:03:05.353Z,0
2016-10-12T03:04:04.902Z,0
2016-10-12T03:05:04.687Z,0
2016-10-12T03:06:05.423Z,0
2016-10-12T03:07:05.939Z,0
2016-10-12T03:08:06.371Z,0
2016-10-12T03:09:05.985Z,0
2016-10-12T03:10:05.537Z,0
2016-10-12T03:11:05.738Z,0
2016-10-12T03:12:05.614Z,0
2016-10-12T03:13:05.097Z,0
2016-10-12T03:14:05.708Z,0
2016-10-12T03:15:05.359Z,0
2016-10-12T03:16:05.370Z,0
2016-10-12T03:17:05.660Z,0
2016-10-12T03:18:05.468Z,0
2016-10-12T03:19:05.067Z,0
2016-10-12T03:20:05.647Z,0
2016-10-12T03:21:06.420Z,0
2016-10-12T03:22:05.791Z,0
2016-10-12T03:23:05.182Z,0
2016-10-12T03:24:06.305Z,0
2016-10-12T03:25:05.892Z,0
2016-10-12T03:26:05.404Z,0
2016-10-12T03:27:05.223Z,0
2016-10-12T03:28:06.324Z,0
2016-10-12T03:29:06.030Z,0
2016-10-12T03:30:05.943Z,0
2016-10-12T03:31:06.137Z,0
2016-10-12T03:32:05.260Z,0
2016-10-12T03:33:06.441Z,0
2016-10-12T03:34:06.745Z,0
2016-10-12T03:35:06.273Z,0
2016-10-12T03:36:05.676Z,0
2016-10-12T03:37:07.027Z,0
2016-10-12T03:38:05.984Z,0
2016-10-12T03:39:06.727Z,0
2016-10-12T03:40:05.701Z,0
2016-10-12T03:41:07.505Z,0
2016-10-12T03:42:05.813Z,0
2016-10-12T03:43:05.871Z,0
2016-10-12T03:44:06.186Z,0
2016-10-12T03:45:06.252Z,0
2016-10-12T03:46:05.823Z,0
2016-10-12T03:47:06.457Z,0
2016-10-12T03:48:05.712Z,0
2016-10-12T03:49:06.675Z,0
2016-10-12T03:50:05.937Z,0
2016-10-12T03:51:06.412Z,0
2016-10-12T03:52:05.995Z,0
2016-10-12T03:53:06.045Z,0
2016-10-12T03:54:06.319Z,0
2016-10-12T03:55:06.124Z,0
2016-10-12T03:56:06.312Z,0
2016-10-12T03:57:05.673Z,0
2016-10-12T03:58:06.797Z,0
2016-10-12T03:59:06.779Z,0
2016-10-12T04:00:06.315Z,0
2016-10-12T04:01:06.172Z,0
2016-10-12T04:02:05.436Z,0
2016-10-12T04:03:06.990Z,0
2016-10-12T04:04:06.157Z,0
2016-10-12T04:05:06.341Z,0
2016-10-12T04:06:06.420Z,0
2016-10-12T04:07:06.742Z,0
2016-10-12T04:08:06.476Z,0
2016-10-12T04:09:06.969Z,0
2016-10-12T04:10:05.932Z,0
2016-10-12T04:11:06.651Z,0
2016-10-12T04:12:07.496Z,0
2016-10-12T04:13:06.112Z,0
2016-10-12T04:14:07.281Z,0
2016-10-12T04:15:06.392Z,0
2016-10-12T04:16:05.939Z,0
2016-10-12T04:17:07.658Z,0
2016-10-12T04:18:06.845Z,0
2016-10-12T04:19:06.688Z,0
2016-10-12T04:20:06.504Z,0
2016-10-12T04:21:06.558Z,0
2016-10-12T04:22:06.993Z,0
2016-10-12T04:23:06.980Z,0
2016-10-12T04:24:07.256Z,0
2016-10-12T04:25:06.444Z,0
2016-10-12T04:26:07.786Z,0
2016-10-12T04:27:06.340Z,0
2016-10-12T04:28:06.614Z,0
2016-10-12T04:29:06.991Z,0
2016-10-12T04:30:06.856Z,0
2016-10-12T04:31:07.122Z,0
2016-10-12T04:32:07.758Z,0
2016-10-12T04:33:06.991Z,0
2016-10-12T04:34:07.231Z,0
2016-10-12T04:35:06.847Z,0
2016-10-12T04:36:07.418Z,0
2016-10-12T04:37:07.212Z,0
2016-10-12T04:38:07.393Z,0
2016-10-12T04:39:07.151Z,0
2016-10-12T04:40:07.116Z,0
2016-10-12T04:41:06.626Z,0
2016-10-12T04:42:06.847Z,0
2016-10-12T04:43:07.118Z,0
2016-10-12T04:44:07.186Z,0
2016-10-12T04:45:07.926Z,0
2016-10-12T04:46:07.336Z,0
2016-10-12T04:47:07.945Z,0
2016-10-12T04:48:07.118Z,0
2016-10-12T04:49:06.902Z,0
2016-10-12T04:50:07.179Z,0
2016-10-12T04:51:07.876Z,0
2016-10-12T04:52:08.003Z,0
2016-10-12T04:53:07.099Z,0
2016-10-12T04:54:07.841Z,0
2016-10-12T04:55:07.854Z,0
2016-10-12T04:56:08.034Z,0
2016-10-12T04:57:06.998Z,0
2016-10-12T04:58:07.826Z,0
2016-10-12T04:59:06.819Z,0
2016-10-12T05:00:07.370Z,0
2016-10-12T05:01:07.690Z,0
2016-10-12T05:02:07.119Z,0
2016-10-12T05:03:07.464Z,0
2016-10-12T05:04:06.153Z,0
2016-10-12T05:05:12.259Z,0
2016-10-12T05:06:08.914Z,0
2016-10-12T05:07:06.777Z,0
2016-10-12T05:08:06.934Z,0
2016-10-12T05:09:07.649Z,0
2016-10-12T05:10:08.571Z,0
2016-10-12T05:11:08.270Z,0
2016-10-12T05:12:07.790Z,0
2016-10-12T05:13:07.712Z,0
2016-10-12T05:14:07.645Z,0
2016-10-12T05:15:08.021Z,4
2016-10-12T05:16:08.260Z,4
2016-10-12T05:17:07.206Z,4
2016-10-12T05:18:07.510Z,4
2016-10-12T05:19:07.663Z,4
2016-10-12T05:20:07.534Z,4
2016-10-12T05:21:07.174Z,8
2016-10-12T05:22:07.328Z,8
2016-10-12T05:23:06.809Z,8
2016-10-12T05:24:07.003Z,8
2016-10-12T05:25:07.887Z,12
2016-10-12T05:26:07.659Z,16
2016-10-12T05:27:07.589Z,20
2016-10-12T05:28:08.307Z,20
2016-10-12T05:29:08.006Z,24
2016-10-12T05:30:07.651Z,28
2016-10-12T05:31:08.238Z,32
2016-10-12T05:32:08.244Z,36
2016-10-12T05:33:08.447Z,48
2016-10-12T05:34:08.629Z,52
2016-10-12T05:35:07.731Z,64
2016-10-12T05:36:07.855Z,72
2016-10-12T05:37:07.641Z,84
2016-10-12T05:38:07.204Z,96
2016-10-12T05:39:08.376Z,112
2016-10-12T05:40:08.973Z,124
2016-10-12T05:41:07.843Z,132
2016-10-12T05:42:07.576Z,140
2016-10-12T05:43:07.669Z,164
2016-10-12T05:44:07.998Z,188
2016-10-12T05:45:08.556Z,208
2016-10-12T05:46:08.720Z,228
2016-10-12T05:47:08.197Z,248
2016-10-12T05:48:07.918Z,272
2016-10-12T05:49:08.472Z,288
2016-10-12T05:50:09.487Z,304
2016-10-12T05:51:07.746Z,316
2016-10-12T05:52:08.168Z,324
2016-10-12T05:53:08.887Z,336
2016-10-12T05:54:08.158Z,352
2016-10-12T05:55:08.754Z,356
2016-10-12T05:56:08.370Z,364
2016-10-12T05:57:08.532Z,380
2016-10-12T05:58:08.136Z,372
2016-10-12T05:59:08.157Z,376
2016-10-12T06:00:08.809Z,372
2016-10-12T06:01:07.878Z,368
2016-10-12T06:02:08.984Z,416
2016-10-12T06:03:08.508Z,472
2016-10-12T06:04:08.121Z,476
2016-10-12T06:05:08.082Z,496
2016-10-12T06:06:09.033Z,492
2016-10-12T06:07:08.608Z,544
2016-10-12T06:08:09.085Z,580
2016-10-12T06:09:08.648Z,560
2016-10-12T06:10:08.456Z,668
2016-10-12T06:11:09.109Z,772
2016-10-12T06:12:09.586Z,856
2016-10-12T06:13:08.641Z,876
2016-10-12T06:14:08.942Z,852
2016-10-12T06:15:08.618Z,848
2016-10-12T06:16:07.989Z,944
2016-10-12T06:17:08.244Z,1040
2016-10-12T06:18:08.207Z,1052
2016-10-12T06:19:09.521Z,1092
2016-10-12T06:20:08.514Z,1120
2016-10-12T06:21:07.904Z,1128
2016-10-12T06:22:09.251Z,1132
2016-10-12T06:23:08.116Z,1084
2016-10-12T06:24:08.136Z,980
2016-10-12T06:25:09.140Z,912
2016-10-12T06:26:08.744Z,1012
2016-10-12T06:27:08.491Z,1268
2016-10-12T06:28:08.520Z,1252
2016-10-12T06:29:09.100Z,1204
2016-10-12T06:30:08.597Z,1124
2016-10-12T06:31:08.830Z,1036
2016-10-12T06:32:09.317Z,1000
2016-10-12T06:33:09.183Z,896
2016-10-12T06:34:10.182Z,812
2016-10-12T06:35:09.941Z,872
2016-10-12T06:36:09.226Z,952
2016-10-12T06:37:08.607Z,1004
2016-10-12T06:38:08.202Z,1008
2016-10-12T06:39:09.207Z,1048
2016-10-12T06:40:08.629Z,1120
2016-10-12T06:41:08.671Z,1128
2016-10-12T06:42:08.427Z,1108
2016-10-12T06:44:07.975Z,1332
2016-10-12T06:45:08.874Z,1396
2016-10-12T06:46:08.543Z,1456
2016-10-12T06:47:09.484Z,1552
2016-10-12T06:48:08.819Z,1664
2016-10-12T06:49:08.968Z,1776
2016-10-12T06:50:09.452Z,1868
2016-10-12T06:51:08.960Z,1996
2016-10-12T06:52:08.917Z,2160
2016-10-12T06:53:09.471Z,2236
2016-10-12T06:54:08.998Z,2252
2016-10-12T06:55:09.092Z,2240
2016-10-12T06:56:09.436Z,2240
2016-10-12T06:57:09.800Z,2228
2016-10-12T06:58:09.431Z,2220
2016-10-12T06:59:09.965Z,2172
2016-10-12T07:00:09.082Z,2124
2016-10-12T07:01:10.673Z,2096
2016-10-12T07:02:09.333Z,2136
2016-10-12T07:03:08.772Z,2188
2016-10-12T07:04:08.925Z,2256
2016-10-12T07:05:09.757Z,2340
2016-10-12T07:06:09.406Z,2416
2016-10-12T07:07:09.940Z,2516
2016-10-12T07:08:09.445Z,2600
2016-10-12T07:09:09.158Z,2664
2016-10-12T07:10:09.274Z,2744
2016-10-12T07:11:09.354Z,2856
2016-10-12T07:12:09.742Z,3028
2016-10-12T07:13:09.335Z,3244
2016-10-12T07:14:10.188Z,3480
2016-10-12T07:15:09.347Z,3688
2016-10-12T07:16:09.337Z,3928
2016-10-12T07:17:09.538Z,4220
2016-10-12T07:18:09.814Z,4496
2016-10-12T07:19:09.919Z,4756
2016-10-12T07:20:09.172Z,5012
2016-10-12T07:21:09.764Z,5148
2016-10-12T07:22:09.274Z,5100
2016-10-12T07:23:09.367Z,4932
2016-10-12T07:24:09.527Z,4964
2016-10-12T07:25:09.680Z,5252
2016-10-12T07:26:09.715Z,5436
2016-10-12T07:27:09.561Z,5488
2016-10-12T07:28:09.314Z,5540
2016-10-12T07:29:10.421Z,5516
2016-10-12T07:30:09.765Z,5324
2016-10-12T07:31:09.676Z,5036
2016-10-12T07:32:10.651Z,4884
2016-10-12T07:33:09.436Z,4896
2016-10-12T07:34:10.100Z,4952
2016-10-12T07:35:09.837Z,5016
2016-10-12T07:36:09.759Z,5116
2016-10-12T07:37:10.704Z,5268
2016-10-12T07:38:09.443Z,5504
2016-10-12T07:39:09.509Z,5848
2016-10-12T07:40:10.692Z,6244
2016-10-12T07:41:09.809Z,6584
2016-10-12T07:42:10.467Z,6688
2016-10-12T07:43:10.214Z,6544
2016-10-12T07:44:09.850Z,6256
2016-10-12T07:45:10.240Z,5916
2016-10-12T07:47:10.394Z,5728
2016-10-12T07:48:09.811Z,6000
2016-10-12T07:49:10.411Z,6300
2016-10-12T07:50:10.211Z,6616
2016-10-12T07:51:09.992Z,6864
2016-10-12T07:52:09.970Z,7088
2016-10-12T07:53:10.279Z,7216
2016-10-12T07:54:10.301Z,7028
2016-10-12T07:55:11.339Z,6752
2016-10-12T07:56:10.355Z,6664
2016-10-12T07:57:11.128Z,6472
2016-10-12T07:58:11.164Z,6172
2016-10-12T07:59:10.368Z,5988
2016-10-12T08:00:10.004Z,5692
2016-10-12T08:01:11.944Z,5508
2016-10-12T08:02:12.240Z,5324
2016-10-12T08:03:11.020Z,5236
2016-10-12T08:04:09.912Z,5400
2016-10-12T08:05:11.395Z,5640
2016-10-12T08:06:11.221Z,6056
2016-10-12T08:07:11.039Z,6420
2016-10-12T08:08:11.236Z,6612
2016-10-12T08:09:10.036Z,6704
2016-10-12T08:10:09.931Z,6752
2016-10-12T08:11:12.417Z,6680
2016-10-12T08:12:10.180Z,6584
2016-10-12T08:13:11.328Z,6556
2016-10-12T08:14:10.410Z,6736
2016-10-12T08:15:10.800Z,7116
2016-10-12T08:16:10.351Z,7592
2016-10-12T08:17:10.188Z,8156
2016-10-12T08:18:10.109Z,8644
2016-10-12T08:19:10.661Z,9036
2016-10-12T08:20:10.243Z,9196
2016-10-12T08:21:12.147Z,9172
2016-10-12T08:22:10.885Z,9072
2016-10-12T08:23:11.044Z,8992
2016-10-12T08:24:11.004Z,8972
2016-10-12T08:25:10.981Z,9064
2016-10-12T08:26:10.792Z,9136
2016-10-12T08:27:11.807Z,9512
2016-10-12T08:28:10.588Z,9996
2016-10-12T08:29:10.550Z,10280
2016-10-12T08:30:10.417Z,10324
2016-10-12T08:31:10.769Z,10420
2016-10-12T08:32:10.309Z,10524
2016-10-12T08:33:11.083Z,10592
2016-10-12T08:34:10.911Z,10480
2016-10-12T08:35:11.198Z,10296
2016-10-12T08:36:11.004Z,9968
2016-10-12T08:37:10.812Z,9636
2016-10-12T08:38:12.154Z,9272
2016-10-12T08:39:11.305Z,8924
2016-10-12T08:40:10.850Z,8700
2016-10-12T08:41:11.126Z,8636
2016-10-12T08:42:10.819Z,8692
2016-10-12T08:43:11.167Z,8860
2016-10-12T08:44:11.036Z,9104
2016-10-12T08:45:11.555Z,9364
2016-10-12T08:46:11.803Z,9524
2016-10-12T08:47:11.521Z,9508
2016-10-12T08:48:10.991Z,9376
2016-10-12T08:49:10.924Z,9216
2016-10-12T08:50:11.749Z,9172
2016-10-12T08:51:10.871Z,9068
2016-10-12T08:52:11.019Z,8832
2016-10-12T08:53:11.163Z,8568
2016-10-12T08:54:10.795Z,8280
2016-10-12T08:55:11.405Z,7844
2016-10-12T08:56:10.767Z,7532
2016-10-12T08:57:10.796Z,7336
2016-10-12T08:58:12.310Z,7128
2016-10-12T08:59:11.380Z,6956
2016-10-12T09:00:11.206Z,7000
2016-10-12T09:01:10.960Z,7220
2016-10-12T09:02:11.505Z,7104
2016-10-12T09:03:10.934Z,6788
2016-10-12T09:04:11.261Z,6664
2016-10-12T09:05:11.876Z,6832
2016-10-12T09:06:11.190Z,6924
2016-10-12T09:07:11.114Z,6848
2016-10-12T09:08:11.235Z,6604
2016-10-12T09:09:11.335Z,6568
2016-10-12T09:10:10.562Z,6592
2016-10-12T09:11:10.867Z,6780
2016-10-12T09:12:11.646Z,6840
2016-10-12T09:13:12.115Z,6820
2016-10-12T09:14:11.613Z,6804
2016-10-12T09:15:10.931Z,6732
2016-10-12T09:16:10.694Z,6584
2016-10-12T09:17:10.933Z,6848
2016-10-12T09:18:11.560Z,7316
2016-10-12T09:19:11.653Z,8120
2016-10-12T09:20:11.325Z,8932
2016-10-12T09:21:13.020Z,10216
2016-10-12T09:22:11.810Z,11524
2016-10-12T09:23:12.715Z,12536
2016-10-12T09:24:11.027Z,12784
2016-10-12T09:25:12.370Z,12736
2016-10-12T09:26:12.149Z,12152
2016-10-12T09:27:11.355Z,11308
2016-10-12T09:28:12.329Z,10816
2016-10-12T09:29:12.236Z,10936
2016-10-12T09:30:11.313Z,11112
2016-10-12T09:31:11.160Z,10660
2016-10-12T09:32:11.468Z,10184
2016-10-12T09:33:11.122Z,9644
2016-10-12T09:34:11.274Z,9016
2016-10-12T09:35:11.305Z,8736
2016-10-12T09:36:12.821Z,9024
2016-10-12T09:37:12.251Z,9272
2016-10-12T09:38:12.082Z,9540
2016-10-12T09:39:11.523Z,9676
2016-10-12T09:40:12.879Z,10464
2016-10-12T09:41:12.256Z,11260
2016-10-12T09:42:13.045Z,11788
2016-10-12T09:43:12.386Z,11956
2016-10-12T09:44:12.557Z,12716
2016-10-12T09:45:12.400Z,13536
2016-10-12T09:46:11.948Z,14528
2016-10-12T09:47:12.142Z,15236
2016-10-12T09:48:12.904Z,16340
2016-10-12T09:49:11.209Z,17440
2016-10-12T09:50:12.130Z,17312
2016-10-12T09:51:12.735Z,16060
2016-10-12T09:52:13.148Z,14536
2016-10-12T09:53:13.235Z,13176
2016-10-12T09:54:12.140Z,12352
2016-10-12T09:55:12.843Z,12852
2016-10-12T09:56:12.477Z,14004
2016-10-12T09:57:12.437Z,14472
2016-10-12T09:58:12.686Z,14452
2016-10-12T09:59:12.573Z,14424
2016-10-12T10:00:11.996Z,13844
2016-10-12T10:01:12.917Z,13420
2016-10-12T10:02:12.596Z,13040
2016-10-12T10:03:12.979Z,12420
2016-10-12T10:04:12.252Z,12752
2016-10-12T10:05:12.724Z,12516
2016-10-12T10:06:12.946Z,13336
2016-10-12T10:07:12.322Z,14764
2016-10-12T10:08:13.061Z,15536
2016-10-12T10:09:12.712Z,15260
2016-10-12T10:10:12.578Z,14180
2016-10-12T10:11:11.995Z,13580
2016-10-12T10:12:15.920Z,13960
2016-10-12T10:13:12.911Z,15292
2016-10-12T10:14:12.852Z,15796
2016-10-12T10:15:12.683Z,16568
2016-10-12T10:16:13.073Z,17472
2016-10-12T10:17:13.218Z,17920
2016-10-12T10:18:13.588Z,17728
2016-10-12T10:19:13.335Z,16800
2016-10-12T10:20:13.047Z,14752
2016-10-12T10:21:13.059Z,12856
2016-10-12T10:22:12.776Z,11152
2016-10-12T10:23:12.855Z,10524
2016-10-12T10:24:12.631Z,9544
2016-10-12T10:25:12.533Z,8092
2016-10-12T10:26:12.009Z,7064
2016-10-12T10:27:14.070Z,6748
2016-10-12T10:28:13.144Z,6476
2016-10-12T10:29:13.090Z,6384
2016-10-12T10:30:12.344Z,6824
2016-10-12T10:31:13.414Z,8172
2016-10-12T10:32:13.109Z,9260
2016-10-12T10:33:12.930Z,9908
2016-10-12T10:34:13.189Z,10280
2016-10-12T10:35:13.300Z,10960
2016-10-12T10:36:13.277Z,11732
2016-10-12T10:37:12.573Z,12716
2016-10-12T10:38:13.717Z,13152
2016-10-12T10:39:13.220Z,14196
2016-10-12T10:40:13.933Z,14972
2016-10-12T10:41:12.849Z,15072
2016-10-12T10:42:12.852Z,14244
2016-10-12T10:43:13.059Z,13324
2016-10-12T10:44:13.562Z,12496
2016-10-12T10:45:13.559Z,12168
2016-10-12T10:46:13.472Z,12692
2016-10-12T10:47:13.124Z,13276
2016-10-12T10:48:13.100Z,13676
2016-10-12T10:49:13.166Z,13408
2016-10-12T10:50:13.281Z,12648
2016-10-12T10:51:13.849Z,11744
2016-10-12T10:52:13.049Z,11084
2016-10-12T10:53:13.094Z,10704
2016-10-12T10:54:13.555Z,11584
2016-10-12T10:55:13.070Z,12604
2016-10-12T10:56:13.461Z,12804
2016-10-12T10:57:13.177Z,12992
2016-10-12T10:58:13.710Z,13012
2016-10-12T10:59:12.991Z,12892
2016-10-12T11:00:12.970Z,12888
2016-10-12T11:01:13.328Z,12708
2016-10-12T11:02:12.817Z,12156
2016-10-12T11:03:13.118Z,11204
2016-10-12T11:04:13.689Z,10728
2016-10-12T11:05:13.943Z,11524
2016-10-12T11:06:14.136Z,12284
2016-10-12T11:07:14.114Z,12768
2016-10-12T11:08:14.141Z,13056
2016-10-12T11:09:13.079Z,13212
2016-10-12T11:10:14.220Z,13040
2016-10-12T11:11:13.473Z,12992
2016-10-12T11:12:13.435Z,12992
2016-10-12T11:13:13.692Z,13028
2016-10-12T11:14:13.168Z,13116
2016-10-12T11:15:13.659Z,12560
2016-10-12T11:16:13.761Z,12580
2016-10-12T11:17:14.118Z,13656
2016-10-12T11:18:13.217Z,14480
2016-10-12T11:19:13.403Z,14356
2016-10-12T11:20:15.240Z,13952
2016-10-12T11:21:13.465Z,13952
2016-10-12T11:22:13.795Z,14260
2016-10-12T11:23:13.605Z,14640
2016-10-12T11:24:14.109Z,15140
2016-10-12T11:25:13.966Z,15644
2016-10-12T11:26:13.531Z,16412
2016-10-12T11:27:13.705Z,17248
2016-10-12T11:28:13.366Z,17632
2016-10-12T11:29:13.304Z,17856
2016-10-12T11:30:13.458Z,18112
2016-10-12T11:31:13.835Z,18368
2016-10-12T11:32:13.622Z,18624
2016-10-12T11:33:15.054Z,18944
2016-10-12T11:34:14.035Z,19328
2016-10-12T11:35:14.223Z,19712
2016-10-12T11:36:14.272Z,19872
2016-10-12T11:37:14.002Z,20032
2016-10-12T11:38:13.685Z,20096
2016-10-12T11:39:14.022Z,20064
2016-10-12T11:40:15.317Z,19744
2016-10-12T11:41:13.873Z,19232
2016-10-12T11:42:13.800Z,18752
2016-10-12T11:43:14.909Z,18208
2016-10-12T11:44:15.141Z,17408
2016-10-12T11:45:14.696Z,16928
2016-10-12T11:46:14.561Z,16392
2016-10-12T11:47:13.936Z,16284
2016-10-12T11:48:14.296Z,15996
2016-10-12T11:49:15.321Z,15796
2016-10-12T11:50:13.700Z,15472
2016-10-12T11:51:15.937Z,14872
2016-10-12T11:52:14.258Z,14200
2016-10-12T11:53:14.275Z,13564
2016-10-12T11:54:15.159Z,13308
2016-10-12T11:55:15.554Z,13376
2016-10-12T11:56:13.617Z,13636
2016-10-12T11:57:14.133Z,13844
2016-10-12T11:58:16.259Z,14016
2016-10-12T11:59:14.565Z,14504
2016-10-12T12:00:14.424Z,15224
2016-10-12T12:01:15.330Z,15572
2016-10-12T12:02:14.206Z,15344
2016-10-12T12:03:14.784Z,14876
2016-10-12T12:04:14.575Z,14404
2016-10-12T12:05:15.163Z,14036
2016-10-12T12:06:14.592Z,13880
2016-10-12T12:07:15.236Z,14128
2016-10-12T12:08:15.450Z,14696
2016-10-12T12:09:14.297Z,15352
2016-10-12T12:10:14.223Z,15712
2016-10-12T12:11:15.390Z,15792
2016-10-12T12:12:14.229Z,15924
2016-10-12T12:13:14.473Z,15764
2016-10-12T12:14:14.395Z,15140
2016-10-12T12:15:14.609Z,14352
2016-10-12T12:16:15.029Z,13712
2016-10-12T12:17:14.618Z,13244
2016-10-12T12:18:15.714Z,12876
2016-10-12T12:19:14.557Z,12588
2016-10-12T12:20:15.742Z,12500
2016-10-12T12:21:15.712Z,12580
2016-10-12T12:22:15.569Z,12740
2016-10-12T12:23:14.781Z,12972
2016-10-12T12:24:14.757Z,13232
2016-10-12T12:25:15.423Z,13444
2016-10-12T12:26:15.859Z,13660
2016-10-12T12:27:16.314Z,13856
2016-10-12T12:28:14.475Z,14148
2016-10-12T12:29:15.261Z,14428
2016-10-12T12:30:15.311Z,14456
2016-10-12T12:31:15.276Z,14096
2016-10-12T12:32:15.384Z,13284
2016-10-12T12:33:16.003Z,12240
2016-10-12T12:34:15.459Z,11624
2016-10-12T12:35:15.765Z,11388
2016-10-12T12:36:16.042Z,11300
2016-10-12T12:37:15.514Z,11288
2016-10-12T12:38:14.581Z,11336
2016-10-12T12:39:15.667Z,11408
2016-10-12T12:40:14.970Z,11468
2016-10-12T12:41:14.703Z,11516
2016-10-12T12:42:15.983Z,11540
2016-10-12T12:43:14.946Z,11448
2016-10-12T12:44:15.482Z,11512
2016-10-12T12:45:14.891Z,11592
2016-10-12T12:46:15.987Z,11544
2016-10-12T12:47:15.718Z,11340
2016-10-12T12:48:15.713Z,11148
2016-10-12T12:49:15.301Z,10984
2016-10-12T12:50:15.584Z,10848
2016-10-12T12:51:15.328Z,10736
2016-10-12T12:52:15.677Z,10796
2016-10-12T12:53:15.648Z,11052
2016-10-12T12:54:15.800Z,11356
2016-10-12T12:55:16.052Z,11696
2016-10-12T12:56:15.537Z,12072
2016-10-12T12:57:16.390Z,12464
2016-10-12T12:58:16.166Z,12872
2016-10-12T12:59:16.160Z,13156
2016-10-12T13:00:16.456Z,13136
2016-10-12T13:01:15.971Z,12844
2016-10-12T13:02:15.538Z,12504
2016-10-12T13:03:15.225Z,12228
2016-10-12T13:04:17.058Z,12028
2016-10-12T13:05:15.917Z,11788
2016-10-12T13:06:15.277Z,11292
2016-10-12T13:07:15.613Z,10684
2016-10-12T13:08:15.501Z,10312
2016-10-12T13:09:15.742Z,10292
2016-10-12T13:10:15.752Z,10508
2016-10-12T13:11:15.675Z,10784
2016-10-12T13:12:15.834Z,11012
2016-10-12T13:13:15.773Z,11308
2016-10-12T13:14:16.178Z,11608
2016-10-12T13:15:15.754Z,11748
2016-10-12T13:16:17.159Z,11728
2016-10-12T13:17:16.583Z,11524
2016-10-12T13:18:15.774Z,10972
2016-10-12T13:19:16.095Z,10128
2016-10-12T13:20:17.243Z,9352
2016-10-12T13:21:15.768Z,8752
2016-10-12T13:22:15.930Z,8420
2016-10-12T13:23:16.060Z,8352
2016-10-12T13:24:15.802Z,8352
2016-10-12T13:25:16.411Z,8132
2016-10-12T13:26:15.887Z,7760
2016-10-12T13:27:15.804Z,7316
2016-10-12T13:28:16.279Z,6812
2016-10-12T13:29:16.142Z,6360
2016-10-12T13:30:15.702Z,5980
2016-10-12T13:31:16.660Z,5704
2016-10-12T13:32:16.093Z,5604
2016-10-12T13:33:16.602Z,5720
2016-10-12T13:34:16.617Z,5940
2016-10-12T13:35:16.308Z,6172
2016-10-12T13:36:17.374Z,6320
2016-10-12T13:37:15.938Z,6360
2016-10-12T13:38:16.760Z,6364
2016-10-12T13:39:16.500Z,6320
2016-10-12T13:40:15.702Z,6340
2016-10-12T13:41:17.680Z,6344
2016-10-12T13:42:16.460Z,6292
2016-10-12T13:43:16.521Z,6268
2016-10-12T13:44:16.870Z,6096
2016-10-12T13:45:16.246Z,5808
2016-10-12T13:46:16.395Z,5444
2016-10-12T13:47:17.073Z,5060